Time;durP1;ratioP1;P1;durP2;ratioP2;P2;SDS_P1;SDS_P2;PMS_P1;PMS_P2;Temp;Humidity;BMP_temperature;BMP_pressure;BME280_temperature;BME280_humidity;BME280_pressure;Samples;Min_cycle;Max_cycle;Signal;HPM_P1;HPM_P2
2022/06/19 00:01:05;;;;;;;5.53;3.67;;;;;;;16.88;100.00;-24287.34;5052317;28;20183;-70
2022/06/19 00:03:34;;;;;;;6.72;4.57;;;;;;;16.40;100.00;-24274.22;5053751;28;20186;-70
2022/06/19 00:06:00;;;;;;;5.43;3.80;;;;;;;16.49;100.00;-24276.72;5053700;28;20253;-70
2022/06/19 00:08:27;;;;;;;5.13;3.90;;;;;;;16.78;100.00;-24284.69;5053483;28;20279;-69
2022/06/19 00:10:52;;;;;;;6.57;4.18;;;;;;;16.61;100.00;-24279.94;5054160;28;20179;-69
2022/06/19 00:13:18;;;;;;;6.63;4.25;;;;;;;16.82;100.00;-24285.69;5053619;28;20181;-70
2022/06/19 00:15:44;;;;;;;6.65;3.83;;;;;;;16.86;100.00;-24286.94;5053675;28;20178;-70
2022/06/19 00:18:09;;;;;;;7.18;4.22;;;;;;;16.53;100.00;-24277.84;5053580;28;20183;-70
2022/06/19 00:20:35;;;;;;;6.95;4.22;;;;;;;16.59;100.00;-24279.41;5053168;28;20167;-70
2022/06/19 00:23:00;;;;;;;6.05;4.05;;;;;;;16.52;100.00;-24277.56;5053050;28;20219;-69
2022/06/19 00:25:26;;;;;;;5.85;4.03;;;;;;;16.87;100.00;-24287.22;5053297;28;20291;-70
2022/06/19 00:27:51;;;;;;;8.45;4.38;;;;;;;16.73;100.00;-24283.31;5053312;28;20203;-70
2022/06/19 00:30:17;;;;;;;8.02;4.38;;;;;;;16.41;100.00;-24274.50;5053673;28;20618;-69
2022/06/19 00:32:42;;;;;;;5.80;4.00;;;;;;;16.37;100.00;-24273.25;5052740;28;20170;-69
2022/06/19 00:35:09;;;;;;;6.22;3.78;;;;;;;16.64;100.00;-24280.78;5053305;28;20174;-70
2022/06/19 00:37:34;;;;;;;6.43;4.30;;;;;;;16.41;100.00;-24274.34;5054404;28;20178;-70
2022/06/19 00:40:01;;;;;;;6.85;4.13;;;;;;;16.37;100.00;-24273.25;5054118;28;20189;-70
2022/06/19 00:42:27;;;;;;;6.55;3.90;;;;;;;16.20;100.00;-24268.63;5052983;28;20163;-69
2022/06/19 00:44:53;;;;;;;8.65;4.30;;;;;;;16.59;100.00;-24279.53;5052717;28;20181;-70
2022/06/19 00:47:38;;;;;;;6.80;3.70;;;;;;;16.32;100.00;-24271.97;5052600;28;20575;-69
2022/06/19 00:50:25;;;;;;;7.50;3.72;;;;;;;16.54;100.00;-24278.13;5051468;28;20167;-69
2022/06/19 00:52:50;;;;;;;7.63;4.47;;;;;;;16.04;100.00;-24264.16;5052946;28;20310;-70
2022/06/19 00:55:23;;;;;;;5.40;3.75;;;;;;;16.00;100.00;-24263.16;5052973;28;20289;-70
2022/06/19 00:58:21;;;;;;;7.25;4.03;;;;;;;16.25;100.00;-24270.16;5052009;28;20593;-70
2022/06/19 01:00:51;;;;;;;5.32;3.90;;;;;;;16.21;100.00;-24269.03;5052437;28;20269;-69
2022/06/19 01:03:26;;;;;;;6.55;4.07;;;;;;;16.34;100.00;-24272.69;5051395;28;20589;-69
2022/06/19 01:05:52;;;;;;;6.57;4.05;;;;;;;16.12;100.00;-24266.53;5052535;28;20166;-69
2022/06/19 01:08:18;;;;;;;5.93;3.97;;;;;;;16.27;100.00;-24270.59;5051985;28;20226;-69
2022/06/19 01:10:48;;;;;;;6.20;3.85;;;;;;;16.39;100.00;-24273.78;5052481;28;20186;-69
2022/06/19 01:13:16;;;;;;;4.90;3.40;;;;;;;16.36;100.00;-24273.09;5052162;28;20174;-69
2022/06/19 01:15:42;;;;;;;6.78;3.92;;;;;;;16.28;100.00;-24271.00;5052384;28;20163;-69
2022/06/19 01:18:09;;;;;;;4.95;3.70;;;;;;;15.89;100.00;-24260.22;5052628;28;20652;-69
2022/06/19 01:20:35;;;;;;;4.50;3.15;;;;;;;16.27;100.00;-24270.59;5052613;28;20174;-70
2022/06/19 01:23:08;;;;;;;5.65;3.47;;;;;;;16.29;100.00;-24271.13;5051678;28;20171;-69
2022/06/19 01:25:37;;;;;;;5.35;3.45;;;;;;;16.31;100.00;-24271.69;5052169;28;20250;-69
2022/06/19 01:30:58;;;;;;;5.35;3.67;;;;;;;16.03;100.00;-24263.88;5051848;28;20599;-70
2022/06/19 01:33:31;;;;;;;8.07;4.00;;;;;;;16.10;100.00;-24265.81;5051971;28;20519;-70
2022/06/19 01:36:02;;;;;;;6.47;3.80;;;;;;;16.35;100.00;-24272.97;5052053;28;20672;-69
2022/06/19 01:38:29;;;;;;;7.03;3.70;;;;;;;16.02;100.00;-24263.72;5051035;28;20554;-70
2022/06/19 01:40:59;;;;;;;7.00;4.10;;;;;;;15.97;100.00;-24262.31;5051939;28;20178;-70
2022/06/19 01:43:25;;;;;;;5.68;3.25;;;;;;;16.04;100.00;-24264.28;5051941;28;20228;-69
2022/06/19 01:45:52;;;;;;;4.63;3.13;;;;;;;16.05;100.00;-24264.56;5051254;28;20638;-69
2022/06/19 01:48:20;;;;;;;5.53;3.78;;;;;;;15.95;100.00;-24261.63;5051264;28;20582;-70
2022/06/19 01:50:47;;;;;;;5.85;3.67;;;;;;;15.73;100.00;-24255.75;5051816;28;20220;-70
2022/06/19 01:53:18;;;;;;;8.23;3.70;;;;;;;16.01;100.00;-24263.31;5051527;28;20612;-70
2022/06/19 01:55:44;;;;;;;4.68;3.40;;;;;;;15.86;100.00;-24259.38;5050543;28;20258;-69
2022/06/19 01:58:11;;;;;;;5.28;3.67;;;;;;;16.31;100.00;-24271.84;5051136;28;20222;-70
2022/06/19 02:00:37;;;;;;;6.13;3.70;;;;;;;16.03;100.00;-24263.88;5051724;28;20229;-69
2022/06/19 02:03:20;;;;;;;8.02;3.97;;;;;;;16.31;100.00;-24271.69;5050501;28;20258;-70
2022/06/19 02:05:46;;;;;;;6.95;4.30;;;;;;;15.97;100.00;-24262.31;5050742;28;20190;-70
2022/06/19 02:08:14;;;;;;;6.03;3.92;;;;;;;15.88;100.00;-24259.81;5051226;28;20202;-69
2022/06/19 02:10:41;;;;;;;6.45;4.15;;;;;;;16.11;100.00;-24266.09;5055525;28;20270;-70
2022/06/19 02:13:09;;;;;;;8.18;5.15;;;;;;;15.94;100.00;-24261.34;5054734;28;20244;-71
2022/06/19 02:15:36;;;;;;;8.00;4.28;;;;;;;16.34;100.00;-24272.53;5055895;28;20294;-70
2022/06/19 02:18:05;;;;;;;7.75;4.63;;;;;;;16.03;100.00;-24263.88;5055378;28;20170;-70
2022/06/19 02:20:31;;;;;;;8.25;4.15;;;;;;;16.26;100.00;-24270.44;5055555;28;20220;-70
2022/06/19 02:22:57;;;;;;;7.50;4.80;;;;;;;16.15;100.00;-24267.22;5055743;28;20183;-70
2022/06/19 02:25:23;;;;;;;7.32;4.43;;;;;;;15.96;100.00;-24262.06;5055174;28;20209;-70
2022/06/19 02:27:49;;;;;;;6.47;4.05;;;;;;;16.21;100.00;-24268.91;5055033;28;20186;-71
2022/06/19 02:30:15;;;;;;;6.03;4.13;;;;;;;16.22;100.00;-24269.31;5055019;28;20236;-70
2022/06/19 02:32:46;;;;;;;9.73;4.72;;;;;;;16.18;100.00;-24268.06;5055346;28;20179;-70
2022/06/19 02:35:22;;;;;;;7.00;4.85;;;;;;;15.99;100.00;-24262.88;5059462;28;20206;-71
2022/06/19 02:37:50;;;;;;;7.40;4.63;;;;;;;16.18;100.00;-24268.06;5059184;28;20269;-68
2022/06/19 02:40:34;;;;;;;8.63;4.60;;;;;;;16.00;100.00;-24263.03;5058671;28;20632;-70
2022/06/19 02:43:00;;;;;;;6.63;4.45;;;;;;;16.17;100.00;-24267.78;5053913;28;20532;-70
2022/06/19 02:45:29;;;;;;;6.93;4.72;;;;;;;15.83;100.00;-24258.41;5055233;28;20213;-70
2022/06/19 02:47:58;;;;;;;8.52;4.65;;;;;;;16.25;100.00;-24270.16;5055064;28;20278;-70
2022/06/19 02:50:32;;;;;;;7.93;4.85;;;;;;;16.01;100.00;-24263.44;5052951;28;20261;-70
2022/06/19 02:52:58;;;;;;;6.93;4.57;;;;;;;15.82;100.00;-24258.13;5054491;28;20170;-71
2022/06/19 02:55:24;;;;;;;6.60;3.83;;;;;;;15.87;100.00;-24259.53;5054448;28;20357;-70
2022/06/19 02:57:50;;;;;;;8.82;4.70;;;;;;;16.33;100.00;-24272.25;5054202;28;20253;-70
2022/06/19 03:00:28;;;;;;;9.32;4.75;;;;;;;16.51;100.00;-24277.28;5053976;28;20171;-71
2022/06/19 03:02:57;;;;;;;6.95;4.50;;;;;;;17.34;100.00;-24300.06;5054014;28;20198;-70
2022/06/19 03:05:27;;;;;;;6.18;4.30;;;;;;;17.76;100.00;-24311.78;5054278;28;20171;-70
2022/06/19 03:07:53;;;;;;;6.85;4.22;;;;;;;18.58;100.00;-24334.38;5054110;28;20202;-71
2022/06/19 03:10:18;;;;;;;8.25;4.50;;;;;;;19.56;100.00;-24361.22;5054244;28;20177;-70
2022/06/19 03:12:44;;;;;;;5.68;3.90;;;;;;;20.02;100.00;-24374.00;5054298;28;20171;-70
2022/06/19 03:15:11;;;;;;;5.65;3.65;;;;;;;20.45;100.00;-24385.69;5054296;28;20258;-70
2022/06/19 03:17:38;;;;;;;7.13;4.15;;;;;;;20.80;100.00;-24395.25;5053945;28;20243;-71
2022/06/19 03:20:04;;;;;;;4.45;3.42;;;;;;;21.51;100.00;-24414.81;5053551;28;20206;-71
2022/06/19 03:22:30;;;;;;;5.40;3.53;;;;;;;22.10;nan;-24430.88;5052893;28;20240;-71
2022/06/19 03:24:55;;;;;;;6.38;3.65;;;;;;;22.52;nan;-24442.38;5054145;28;20163;-71
2022/06/19 03:27:21;;;;;;;4.78;3.22;;;;;;;23.43;nan;-24467.38;5054611;28;20214;-71
2022/06/19 03:29:46;;;;;;;5.72;3.50;;;;;;;24.06;nan;-24484.50;5055231;28;20204;-71
2022/06/19 03:32:13;;;;;;;5.22;3.70;;;;;;;24.31;nan;-24491.41;5053894;28;20189;-71
2022/06/19 03:34:40;;;;;;;5.90;3.72;;;;;;;24.65;nan;-24500.75;5054246;28;20655;-71
2022/06/19 03:37:05;;;;;;;5.68;3.60;;;;;;;25.98;nan;-24536.69;5054317;28;20175;-71
2022/06/19 03:39:31;;;;;;;5.45;3.65;;;;;;;26.52;nan;-24551.53;5054178;28;20257;-71
2022/06/19 03:41:56;;;;;;;5.43;3.63;;;;;;;27.64;nan;-24581.84;5054238;28;20167;-71
2022/06/19 03:44:22;;;;;;;5.03;3.40;;;;;;;27.88;nan;-24588.41;5053739;28;20244;-72
2022/06/19 03:46:47;;;;;;;8.65;3.65;;;;;;;27.87;nan;-24588.13;5051757;28;20175;-71
2022/06/19 03:49:13;;;;;;;5.78;3.60;;;;;;;27.68;nan;-24582.94;5052398;28;20189;-71
2022/06/19 03:51:38;;;;;;;4.22;3.28;;;;;;;27.34;nan;-24573.63;5054178;28;20206;-72
2022/06/19 03:54:07;;;;;;;4.32;3.08;;;;;;;27.53;nan;-24578.81;5053329;28;20299;-73
2022/06/19 03:56:33;;;;;;;5.80;3.67;;;;;;;28.27;nan;-24598.97;5053709;28;20182;-72
2022/06/19 03:58:59;;;;;;;4.30;3.40;;;;;;;28.61;nan;-24607.97;5053925;28;20677;-73
2022/06/19 04:01:28;;;;;;;6.40;3.33;;;;;;;28.48;nan;-24604.56;5053445;28;20178;-72
2022/06/19 04:03:55;;;;;;;4.30;3.17;;;;;;;29.01;nan;-24618.78;5053610;28;20170;-73
2022/06/19 04:06:24;;;;;;;4.13;3.28;;;;;;;27.95;nan;-24590.19;5053474;28;20174;-71
2022/06/19 04:08:49;;;;;;;4.05;3.17;;;;;;;27.66;nan;-24582.38;5053184;28;20828;-71
2022/06/19 04:11:17;;;;;;;4.88;3.22;;;;;;;27.30;nan;-24572.66;5053779;28;20265;-72
2022/06/19 04:13:43;;;;;;;4.93;3.42;;;;;;;27.12;nan;-24567.84;5052562;28;20175;-69
2022/06/19 04:16:16;;;;;;;4.88;3.38;;;;;;;26.17;nan;-24541.91;5052766;28;20175;-70
2022/06/19 04:18:42;;;;;;;6.38;3.40;;;;;;;27.01;nan;-24564.84;5051051;28;20225;-70
2022/06/19 04:21:13;;;;;;;4.85;3.58;;;;;;;28.21;nan;-24597.19;5052764;28;20578;-70
2022/06/19 04:23:38;;;;;;;6.95;4.13;;;;;;;29.37;nan;-24628.75;5050511;28;20170;-71
2022/06/19 04:26:10;;;;;;;4.25;3.38;;;;;;;29.97;nan;-24644.72;5052321;28;20170;-69
2022/06/19 04:28:36;;;;;;;7.22;3.78;;;;;;;30.50;nan;-24659.19;5050788;28;20680;-69
2022/06/19 04:31:05;;;;;;;6.55;3.78;;;;;;;30.44;nan;-24657.53;5051923;28;20246;-69
2022/06/19 04:33:32;;;;;;;5.55;4.05;;;;;;;30.58;nan;-24661.34;5054348;28;20171;-66
2022/06/19 04:35:58;;;;;;;5.82;4.10;;;;;;;30.52;nan;-24659.72;5071932;28;20220;-69
2022/06/19 04:38:23;;;;;;;7.15;4.22;;;;;;;30.21;nan;-24651.28;5052740;28;20598;-67
2022/06/19 04:40:50;;;;;;;5.50;4.30;;;;;;;30.24;nan;-24652.09;5052652;28;20636;-68
2022/06/19 04:43:16;;;;;;;7.00;4.30;;;;;;;30.87;nan;-24668.97;5052456;28;20618;-69
2022/06/19 04:45:42;;;;;;;5.75;3.95;;;;;;;30.94;nan;-24671.03;5052269;28;20684;-69
2022/06/19 04:48:08;;;;;;;8.40;4.15;;;;;;;30.77;nan;-24666.41;5052191;28;20220;-69
2022/06/19 04:50:34;;;;;;;6.18;4.15;;;;;;;30.54;nan;-24660.13;5052552;28;20261;-67
2022/06/19 04:53:00;;;;;;;6.10;3.90;;;;;;;28.14;nan;-24595.25;5051029;28;20184;-68
2022/06/19 04:55:25;;;;;;;6.22;4.40;;;;;;;28.74;nan;-24611.69;5052040;28;20255;-69
2022/06/19 04:57:50;;;;;;;5.13;4.00;;;;;;;29.38;nan;-24628.91;5051716;28;20297;-70
2022/06/19 05:00:19;;;;;;;7.20;4.40;;;;;;;29.75;nan;-24638.84;5052110;28;20192;-69
2022/06/19 05:02:49;;;;;;;5.18;3.90;;;;;;;28.89;nan;-24615.78;5052112;28;20174;-69
2022/06/19 05:05:17;;;;;;;5.55;4.18;;;;;;;27.79;nan;-24585.81;5052223;28;20194;-69
2022/06/19 05:07:43;;;;;;;5.15;3.67;;;;;;;27.64;nan;-24581.84;5052414;28;20204;-69
2022/06/19 05:10:10;;;;;;;6.30;4.10;;;;;;;26.64;nan;-24554.69;5051756;28;20175;-70
2022/06/19 05:12:36;;;;;;;5.60;3.85;;;;;;;25.54;nan;-24524.88;5051950;28;20254;-70
2022/06/19 05:15:03;;;;;;;6.03;3.80;;;;;;;25.95;nan;-24536.00;5051716;28;20619;-70
2022/06/19 05:17:29;;;;;;;6.32;3.67;;;;;;;25.59;nan;-24526.09;5052038;28;20202;-70
2022/06/19 05:19:54;;;;;;;6.28;4.05;;;;;;;26.36;nan;-24547.28;5052182;28;20217;-71
2022/06/19 05:22:19;;;;;;;6.68;3.90;;;;;;;25.93;nan;-24535.44;5052289;28;20264;-70
2022/06/19 05:24:45;;;;;;;5.18;3.88;;;;;;;25.79;nan;-24531.59;5051540;28;20181;-71
2022/06/19 05:27:11;;;;;;;5.07;3.85;;;;;;;25.53;nan;-24524.72;5051528;28;20336;-68
2022/06/19 05:29:38;;;;;;;4.82;3.38;;;;;;;25.54;nan;-24524.88;5050150;28;20186;-69
2022/06/19 05:32:04;;;;;;;5.25;3.65;;;;;;;25.76;nan;-24530.91;5051636;28;20656;-71
2022/06/19 05:34:31;;;;;;;4.88;3.65;;;;;;;25.55;nan;-24525.00;5051663;28;20185;-70
2022/06/19 05:36:56;;;;;;;4.95;3.50;;;;;;;26.49;nan;-24550.69;5051563;28;20500;-70
2022/06/19 05:39:22;;;;;;;5.72;3.70;;;;;;;26.30;nan;-24545.47;5051599;28;20257;-71
2022/06/19 05:41:47;;;;;;;5.28;3.78;;;;;;;26.27;nan;-24544.78;5049971;28;20258;-71
2022/06/19 05:44:13;;;;;;;5.25;3.60;;;;;;;26.12;nan;-24540.69;5051178;28;20182;-70
2022/06/19 05:46:50;;;;;;;4.70;3.40;;;;;;;25.34;nan;-24519.50;5051387;28;20175;-71
2022/06/19 05:49:16;;;;;;;6.53;3.22;;;;;;;25.26;nan;-24517.16;5052384;28;20672;-70
2022/06/19 05:51:45;;;;;;;4.63;3.53;;;;;;;24.47;nan;-24495.81;5051567;28;20224;-74
2022/06/19 05:54:10;;;;;;;6.38;4.03;;;;;;;24.33;nan;-24491.94;5051311;28;20208;-69
2022/06/19 05:56:36;;;;;;;5.93;3.60;;;;;;;24.11;nan;-24485.88;5050173;28;20278;-68
2022/06/19 05:59:02;;;;;;;4.95;3.72;;;;;;;23.90;nan;-24480.22;5051352;28;20221;-71
2022/06/19 06:01:29;;;;;;;5.05;3.80;;;;;;;23.94;nan;-24481.19;5051442;28;20163;-70
2022/06/19 06:03:55;;;;;;;4.85;3.45;;;;;;;23.92;nan;-24480.78;5051207;28;20702;-70
2022/06/19 06:06:27;;;;;;;5.38;4.00;;;;;;;24.02;nan;-24483.53;5050630;28;20175;-71
2022/06/19 06:08:54;;;;;;;4.70;3.58;;;;;;;23.71;nan;-24474.97;5049915;28;20210;-71
2022/06/19 06:11:21;;;;;;;5.28;3.75;;;;;;;23.63;nan;-24472.78;5049093;28;20273;-72
2022/06/19 06:13:47;;;;;;;5.07;3.45;;;;;;;23.36;nan;-24465.44;5051231;28;20183;-70
2022/06/19 06:16:15;;;;;;;4.53;3.38;;;;;;;23.25;nan;-24462.41;5051444;28;20274;-70
2022/06/19 06:18:41;;;;;;;5.50;3.47;;;;;;;23.41;nan;-24466.81;5051541;28;20221;-71
2022/06/19 06:21:10;;;;;;;5.97;3.78;;;;;;;23.51;nan;-24469.47;5050802;28;20178;-70
2022/06/19 06:23:36;;;;;;;5.57;3.75;;;;;;;23.61;nan;-24472.34;5052090;28;20216;-71
2022/06/19 06:26:05;;;;;;;6.47;3.90;;;;;;;23.47;nan;-24468.50;5063832;28;20182;-68
2022/06/19 06:28:32;;;;;;;6.60;4.30;;;;;;;23.23;nan;-24462.00;5057023;28;20205;-69
2022/06/19 06:30:58;;;;;;;5.15;3.40;;;;;;;23.57;nan;-24471.13;5051284;28;20174;-70
2022/06/19 06:33:24;;;;;;;5.05;3.47;;;;;;;23.96;nan;-24481.72;5049919;28;20198;-70
2022/06/19 06:35:50;;;;;;;5.63;3.67;;;;;;;23.73;nan;-24475.53;5050068;28;20699;-69
2022/06/19 06:38:15;;;;;;;6.20;4.10;;;;;;;24.04;nan;-24483.94;5050285;28;20179;-69
2022/06/19 06:40:41;;;;;;;5.20;3.58;;;;;;;24.28;nan;-24490.44;5050701;28;20170;-70
2022/06/19 06:43:07;;;;;;;5.32;3.30;;;;;;;24.21;nan;-24488.63;5048653;28;20178;-70
2022/06/19 06:45:33;;;;;;;5.93;4.03;;;;;;;24.27;nan;-24490.16;5049904;28;20237;-72
2022/06/19 06:47:58;;;;;;;5.63;3.83;;;;;;;24.03;nan;-24483.66;5048493;28;20669;-70
2022/06/19 06:50:24;;;;;;;5.15;3.53;;;;;;;24.12;nan;-24486.16;5050073;28;20638;-70
2022/06/19 06:52:49;;;;;;;5.15;3.53;;;;;;;24.00;nan;-24482.84;5049221;28;20328;-71
2022/06/19 06:55:15;;;;;;;5.68;3.85;;;;;;;23.78;nan;-24477.03;5050952;28;20637;-70
2022/06/19 06:57:41;;;;;;;4.93;3.70;;;;;;;24.30;nan;-24490.97;5053489;28;20250;-69
2022/06/19 07:00:08;;;;;;;4.70;3.50;;;;;;;24.54;nan;-24497.75;5052318;28;20197;-70
2022/06/19 07:02:34;;;;;;;7.53;4.07;;;;;;;23.97;nan;-24482.00;5052797;28;20182;-69
2022/06/19 07:04:59;;;;;;;5.82;3.80;;;;;;;24.32;nan;-24491.53;5054226;28;20190;-70
2022/06/19 07:07:25;;;;;;;4.60;3.67;;;;;;;24.63;nan;-24500.06;5050909;28;20298;-71
2022/06/19 07:09:50;;;;;;;4.40;3.00;;;;;;;24.48;nan;-24496.09;5052769;28;20187;-70
2022/06/19 07:12:16;;;;;;;6.82;3.58;;;;;;;24.59;nan;-24499.13;5051681;28;20622;-70
2022/06/19 07:14:41;;;;;;;4.95;3.53;;;;;;;24.79;nan;-24504.34;5053246;28;20267;-69
2022/06/19 07:17:07;;;;;;;5.40;3.72;;;;;;;25.04;nan;-24511.38;5051814;28;20183;-70
2022/06/19 07:19:32;;;;;;;5.32;3.53;;;;;;;25.03;nan;-24510.97;5052458;28;21116;-71
2022/06/19 07:21:58;;;;;;;4.78;3.45;;;;;;;25.08;nan;-24512.47;5052758;28;20637;-71
2022/06/19 07:24:25;;;;;;;5.80;3.50;;;;;;;25.34;nan;-24519.50;5053259;28;20289;-70
2022/06/19 07:26:51;;;;;;;4.95;3.60;;;;;;;25.13;nan;-24513.56;5052448;28;20178;-70
2022/06/19 07:29:17;;;;;;;4.75;3.63;;;;;;;25.56;nan;-24525.41;5054070;28;20625;-70
2022/06/19 07:31:43;;;;;;;4.25;3.33;;;;;;;25.74;nan;-24530.22;5053261;28;20641;-70
2022/06/19 07:34:08;;;;;;;4.60;3.50;;;;;;;25.55;nan;-24525.00;5053499;28;20686;-69
2022/06/19 07:36:34;;;;;;;5.95;3.50;;;;;;;25.40;nan;-24521.00;5052539;28;20545;-71
2022/06/19 07:39:00;;;;;;;5.93;3.53;;;;;;;25.59;nan;-24526.25;5053522;28;20332;-70
2022/06/19 07:41:25;;;;;;;5.38;3.50;;;;;;;25.85;nan;-24533.25;5053582;28;20228;-71
2022/06/19 07:43:51;;;;;;;4.35;3.22;;;;;;;25.99;nan;-24536.97;5052376;28;20637;-74
2022/06/19 07:46:18;;;;;;;4.60;3.30;;;;;;;25.71;nan;-24529.41;5051723;28;20634;-73
2022/06/19 07:51:28;;;;;;;4.80;3.20;;;;;;;25.94;nan;-24535.72;5052126;28;20235;-70
2022/06/19 07:53:53;;;;;;;4.10;3.03;;;;;;;26.19;nan;-24542.59;5052820;28;20269;-73
2022/06/19 07:56:19;;;;;;;4.32;3.35;;;;;;;26.42;nan;-24548.78;5052283;28;20190;-72
2022/06/19 07:58:44;;;;;;;4.72;2.88;;;;;;;26.28;nan;-24545.06;5051509;28;20269;-72
2022/06/19 08:01:10;;;;;;;3.20;2.25;;;;;;;26.18;nan;-24542.19;5052790;28;20284;-72
2022/06/19 08:03:35;;;;;;;2.80;2.15;;;;;;;26.04;nan;-24538.47;5051805;28;20666;-72
2022/06/19 08:06:01;;;;;;;2.70;2.35;;;;;;;25.82;nan;-24532.44;5051951;28;20660;-69
2022/06/19 08:08:30;;;;;;;3.95;2.90;;;;;;;26.00;nan;-24537.38;5052204;28;20203;-71
2022/06/19 08:10:57;;;;;;;3.65;2.13;;;;;;;25.83;nan;-24532.69;5052020;28;20314;-70
2022/06/19 08:13:30;;;;;;;3.13;2.35;;;;;;;26.04;nan;-24538.34;5050724;28;20222;-70
2022/06/19 08:16:00;;;;;;;3.67;2.47;;;;;;;26.00;nan;-24537.22;5051797;28;20265;-68
2022/06/19 08:18:27;;;;;;;2.60;2.22;;;;;;;26.24;nan;-24543.97;5055185;28;20248;-69
2022/06/19 08:20:52;;;;;;;5.88;2.60;;;;;;;26.25;nan;-24544.13;5053935;28;20183;-69
2022/06/19 08:23:19;;;;;;;3.33;2.35;;;;;;;26.44;nan;-24549.19;5053214;28;20178;-68
2022/06/19 08:25:46;;;;;;;2.63;2.08;;;;;;;26.19;nan;-24542.59;5053328;28;20191;-69
2022/06/19 08:28:14;;;;;;;3.00;2.00;;;;;;;25.80;nan;-24532.00;5051874;28;20208;-68
2022/06/19 08:30:42;;;;;;;2.83;2.20;;;;;;;26.14;nan;-24541.09;5048483;28;20214;-68
2022/06/19 08:33:08;;;;;;;3.17;2.33;;;;;;;26.41;nan;-24548.38;5052583;28;20258;-69
2022/06/19 08:35:38;;;;;;;2.90;2.10;;;;;;;26.57;nan;-24552.91;5052549;28;20610;-69
2022/06/19 08:38:09;;;;;;;2.90;2.15;;;;;;;27.00;nan;-24564.56;5052668;28;20178;-69
2022/06/19 08:40:37;;;;;;;2.78;2.33;;;;;;;26.62;nan;-24554.13;5052700;28;20245;-68
2022/06/19 08:43:02;;;;;;;4.10;2.47;;;;;;;26.64;nan;-24554.69;5052788;28;20187;-68
2022/06/19 08:45:35;;;;;;;3.22;2.45;;;;;;;26.39;nan;-24547.97;5051904;28;20174;-69
2022/06/19 08:48:00;;;;;;;4.15;2.10;;;;;;;26.38;nan;-24547.69;5052810;28;20202;-68
2022/06/19 08:50:46;;;;;;;2.67;2.20;;;;;;;26.30;nan;-24545.63;5052705;28;20159;-69
2022/06/19 08:53:35;;;;;;;2.22;2.03;;;;;;;26.34;nan;-24546.72;5053013;28;20288;-69
2022/06/19 08:56:13;;;;;;;2.08;1.85;;;;;;;25.86;nan;-24533.66;5052726;28;20609;-69
2022/06/19 08:58:57;;;;;;;2.30;1.90;;;;;;;26.05;nan;-24538.75;5052748;28;20228;-69
2022/06/19 09:01:54;;;;;;;2.55;2.00;;;;;;;26.83;nan;-24559.91;5052330;28;20170;-70
2022/06/19 09:07:16;;;;;;;2.72;2.05;;;;;;;26.61;nan;-24554.00;5052208;28;20259;-68
2022/06/19 09:09:55;;;;;;;2.65;2.00;;;;;;;27.00;nan;-24564.56;5051539;28;20239;-69
2022/06/19 09:12:33;;;;;;;3.38;1.98;;;;;;;27.25;nan;-24571.28;5051009;28;20197;-69
2022/06/19 09:15:18;;;;;;;2.78;2.10;;;;;;;27.15;nan;-24568.69;5051951;28;20261;-69
2022/06/19 09:17:53;;;;;;;2.92;2.20;;;;;;;26.88;nan;-24561.28;5050031;28;20273;-69
2022/06/19 09:20:33;;;;;;;2.83;2.00;;;;;;;26.99;nan;-24564.16;5049966;28;20612;-68
2022/06/19 09:23:25;;;;;;;2.22;1.88;;;;;;;27.07;nan;-24566.47;5050269;28;20182;-68
2022/06/19 09:26:09;;;;;;;3.08;2.10;;;;;;;26.95;nan;-24563.19;5049142;28;20186;-68
2022/06/19 09:28:55;;;;;;;2.47;2.08;;;;;;;26.74;nan;-24557.44;5050616;28;20685;-68
2022/06/19 09:31:34;;;;;;;4.63;2.30;;;;;;;27.07;nan;-24566.47;5051273;28;20191;-68
2022/06/19 09:34:17;;;;;;;3.22;2.30;;;;;;;27.08;nan;-24566.75;5050723;28;20178;-68
2022/06/19 09:36:49;;;;;;;4.63;2.38;;;;;;;27.89;nan;-24588.69;5046922;28;20189;-68
2022/06/19 09:39:17;;;;;;;3.67;2.33;;;;;;;28.09;nan;-24594.16;5051352;28;20178;-68
2022/06/19 09:41:58;;;;;;;2.78;2.10;;;;;;;27.93;nan;-24589.78;5050488;28;20633;-70
2022/06/19 09:44:53;;;;;;;3.33;2.13;;;;;;;27.55;nan;-24579.38;5044201;28;20336;-68
2022/06/19 09:47:23;;;;;;;2.28;1.83;;;;;;;28.13;nan;-24595.00;5050181;28;20214;-68
2022/06/19 09:50:04;;;;;;;3.90;2.30;;;;;;;28.25;nan;-24598.28;5049675;28;20183;-69
2022/06/19 09:52:42;;;;;;;2.75;2.13;;;;;;;28.16;nan;-24595.94;5049249;28;20638;-69
2022/06/19 09:55:23;;;;;;;2.40;1.90;;;;;;;28.39;nan;-24602.25;5050232;28;20646;-68
2022/06/19 09:58:12;;;;;;;2.92;2.15;;;;;;;28.66;nan;-24609.50;5047024;28;20772;-68
2022/06/19 10:00:40;;;;;;;2.95;2.33;;;;;;;28.50;nan;-24605.13;5050579;28;20185;-68
2022/06/19 10:03:29;;;;;;;4.90;3.00;;;;;;;27.55;nan;-24579.38;5050344;28;20210;-70
2022/06/19 10:06:02;;;;;;;3.22;2.13;;;;;;;26.94;nan;-24562.78;5048583;28;20642;-70
2022/06/19 10:08:46;;;;;;;2.60;2.25;;;;;;;26.38;nan;-24547.69;5049777;28;20244;-70
2022/06/19 10:11:20;;;;;;;2.72;2.33;;;;;;;26.60;nan;-24553.59;5049603;28;20174;-70
2022/06/19 10:14:17;;;;;;;4.28;2.58;;;;;;;27.23;nan;-24570.88;5048445;28;20182;-69
2022/06/19 10:17:01;;;;;;;2.58;2.08;;;;;;;27.33;nan;-24573.47;5043497;28;20302;-72
2022/06/19 10:19:35;;;;;;;2.78;1.92;;;;;;;27.71;nan;-24583.63;5047606;28;20572;-69
2022/06/19 10:22:13;;;;;;;1.90;1.70;;;;;;;27.30;nan;-24572.50;5050902;28;20247;-72
2022/06/19 10:24:57;;;;;;;2.72;2.22;;;;;;;27.86;nan;-24587.88;5046102;28;20257;-72
2022/06/19 10:27:45;;;;;;;3.95;2.13;;;;;;;27.65;nan;-24582.13;5047983;28;20275;-72
2022/06/19 10:30:18;;;;;;;1.95;1.75;;;;;;;28.05;nan;-24592.94;5051057;28;20583;-73
2022/06/19 10:33:19;;;;;;;2.30;2.00;;;;;;;28.25;nan;-24598.28;5051287;28;20181;-70
2022/06/19 10:35:55;;;;;;;4.25;2.00;;;;;;;28.41;nan;-24602.78;5038863;28;20209;-71
2022/06/19 10:38:33;;;;;;;2.83;2.42;;;;;;;27.70;nan;-24583.47;5053507;28;20518;-71
2022/06/19 10:44:42;;;;;;;4.40;2.30;;;;;;;28.05;nan;-24593.06;5034831;28;20194;-72
2022/06/19 10:47:19;;;;;;;4.03;2.33;;;;;;;28.38;nan;-24601.84;5053584;28;20228;-72
2022/06/19 10:50:15;;;;;;;3.00;1.90;;;;;;;27.95;nan;-24590.34;5049544;28;20571;-72
2022/06/19 10:52:50;;;;;;;2.80;2.00;;;;;;;27.95;nan;-24590.19;5050182;28;20202;-71
2022/06/19 10:55:29;;;;;;;2.22;1.90;;;;;;;27.80;nan;-24586.09;5052788;28;20721;-71
2022/06/19 10:58:15;;;;;;;2.35;2.00;;;;;;;28.58;nan;-24607.16;5054542;28;20226;-71
2022/06/19 11:00:42;;;;;;;2.45;1.70;;;;;;;28.89;nan;-24615.78;5054270;28;20178;-73
2022/06/19 11:06:26;;;;;;;3.65;1.70;;;;;;;27.56;nan;-24579.66;5050933;28;20193;-72
2022/06/19 11:08:58;;;;;;;3.28;1.80;;;;;;;27.07;nan;-24566.34;5053460;28;20202;-70
2022/06/19 11:11:26;;;;;;;2.83;2.13;;;;;;;27.15;nan;-24568.53;5054350;28;20178;-71
2022/06/19 11:14:07;;;;;;;2.15;1.90;;;;;;;27.12;nan;-24567.84;5053497;28;20186;-70
2022/06/19 11:16:50;;;;;;;2.47;1.88;;;;;;;26.97;nan;-24563.75;5051446;28;20179;-71
2022/06/19 11:19:43;;;;;;;2.20;1.85;;;;;;;27.59;nan;-24580.47;5045591;28;20551;-71
2022/06/19 11:22:30;;;;;;;2.53;2.00;;;;;;;28.13;nan;-24595.13;5049468;28;20266;-70
2022/06/19 11:24:56;;;;;;;2.40;2.00;;;;;;;28.17;nan;-24596.09;5050563;28;20206;-72
2022/06/19 11:27:25;;;;;;;2.45;1.90;;;;;;;27.95;nan;-24590.19;5053513;28;20237;-71
2022/06/19 11:29:53;;;;;;;1.67;1.58;;;;;;;28.02;nan;-24592.25;5052586;28;20693;-71
2022/06/19 11:32:21;;;;;;;3.67;2.13;;;;;;;28.35;nan;-24601.00;5052737;28;20614;-72
2022/06/19 11:34:58;;;;;;;2.10;1.85;;;;;;;28.39;nan;-24602.09;5051307;28;20270;-71
2022/06/19 11:37:28;;;;;;;2.20;1.92;;;;;;;28.26;nan;-24598.69;5052988;28;20178;-71
2022/06/19 11:39:57;;;;;;;2.15;1.90;;;;;;;27.80;nan;-24586.22;5051895;28;20186;-70
2022/06/19 11:42:36;;;;;;;2.85;2.20;;;;;;;28.22;nan;-24597.59;5051679;28;20187;-71
2022/06/19 11:45:13;;;;;;;2.00;1.80;;;;;;;28.51;nan;-24605.53;5051429;28;20189;-71
2022/06/19 11:47:45;;;;;;;2.22;1.77;;;;;;;28.49;nan;-24604.97;5047993;28;20202;-72
2022/06/19 11:50:21;;;;;;;2.20;1.90;;;;;;;28.41;nan;-24602.78;5049935;28;20197;-71
2022/06/19 11:52:53;;;;;;;4.03;2.00;;;;;;;28.75;nan;-24611.81;5049251;28;20253;-72
2022/06/19 11:55:30;;;;;;;1.88;1.67;;;;;;;29.19;nan;-24623.69;5051466;28;20177;-72
2022/06/19 11:57:59;;;;;;;2.40;1.70;;;;;;;28.56;nan;-24606.75;5052248;28;20229;-72
2022/06/19 12:00:35;;;;;;;2.55;2.00;;;;;;;28.82;nan;-24613.88;5051779;28;20182;-71
2022/06/19 12:03:06;;;;;;;2.33;1.88;;;;;;;28.90;nan;-24615.91;5051654;28;20194;-71